sensor_id;sensor_type;location;lat;lon;timestamp;P1;durP1;ratioP1;P2;durP2;ratioP2
26034;SDS011;13809;48.632;11.576;2023-08-12T00:03:54;3.10;;;2.80;;
26034;SDS011;13809;48.632;11.576;2023-08-12T00:08:57;3.67;;;2.50;;
26034;SDS011;13809;48.632;11.576;2023-08-12T00:14:02;2.53;;;2.33;;
26034;SDS011;13809;48.632;11.576;2023-08-12T00:19:05;3.40;;;2.73;;
26034;SDS011;13809;48.632;11.576;2023-08-12T00:24:10;2.47;;;2.30;;
26034;SDS011;13809;48.632;11.576;2023-08-12T00:29:14;2.80;;;2.60;;
26034;SDS011;13809;48.632;11.576;2023-08-12T00:34:18;2.70;;;2.40;;
26034;SDS011;13809;48.632;11.576;2023-08-12T00:39:21;2.47;;;2.37;;
26034;SDS011;13809;48.632;11.576;2023-08-12T00:44:26;2.73;;;2.53;;
26034;SDS011;13809;48.632;11.576;2023-08-12T00:49:29;2.67;;;2.47;;
26034;SDS011;13809;48.632;11.576;2023-08-12T00:54:34;3.60;;;2.50;;
26034;SDS011;13809;48.632;11.576;2023-08-12T00:59:38;2.70;;;2.50;;
26034;SDS011;13809;48.632;11.576;2023-08-12T01:04:44;2.57;;;2.37;;
26034;SDS011;13809;48.632;11.576;2023-08-12T01:09:47;2.10;;;2.00;;
26034;SDS011;13809;48.632;11.576;2023-08-12T01:14:54;2.40;;;2.20;;
26034;SDS011;13809;48.632;11.576;2023-08-12T01:20:01;2.63;;;2.30;;
26034;SDS011;13809;48.632;11.576;2023-08-12T01:25:11;1.73;;;1.63;;
26034;SDS011;13809;48.632;11.576;2023-08-12T01:30:14;2.80;;;2.60;;
26034;SDS011;13809;48.632;11.576;2023-08-12T01:35:19;2.40;;;2.30;;
26034;SDS011;13809;48.632;11.576;2023-08-12T01:40:27;2.50;;;2.20;;
26034;SDS011;13809;48.632;11.576;2023-08-12T01:45:32;2.27;;;2.03;;
26034;SDS011;13809;48.632;11.576;2023-08-12T01:50:35;2.13;;;2.03;;
26034;SDS011;13809;48.632;11.576;2023-08-12T01:55:42;2.27;;;2.10;;
26034;SDS011;13809;48.632;11.576;2023-08-12T02:00:46;2.60;;;2.40;;
26034;SDS011;13809;48.632;11.576;2023-08-12T02:05:50;2.30;;;2.07;;
26034;SDS011;13809;48.632;11.576;2023-08-12T02:10:54;2.80;;;2.57;;
26034;SDS011;13809;48.632;11.576;2023-08-12T02:15:57;2.40;;;2.20;;
26034;SDS011;13809;48.632;11.576;2023-08-12T02:21:01;2.83;;;2.63;;
26034;SDS011;13809;48.632;11.576;2023-08-12T02:26:05;2.63;;;2.43;;
26034;SDS011;13809;48.632;11.576;2023-08-12T02:31:08;2.33;;;2.13;;
26034;SDS011;13809;48.632;11.576;2023-08-12T02:36:12;2.70;;;2.50;;
26034;SDS011;13809;48.632;11.576;2023-08-12T02:41:16;3.07;;;2.37;;
26034;SDS011;13809;48.632;11.576;2023-08-12T02:46:19;3.77;;;2.67;;
26034;SDS011;13809;48.632;11.576;2023-08-12T02:51:23;3.17;;;2.60;;
26034;SDS011;13809;48.632;11.576;2023-08-12T02:56:27;2.70;;;2.50;;
26034;SDS011;13809;48.632;11.576;2023-08-12T03:01:30;2.47;;;2.27;;
26034;SDS011;13809;48.632;11.576;2023-08-12T03:06:34;2.50;;;2.40;;
26034;SDS011;13809;48.632;11.576;2023-08-12T03:11:38;2.80;;;2.60;;
26034;SDS011;13809;48.632;11.576;2023-08-12T03:16:41;2.20;;;2.10;;
26034;SDS011;13809;48.632;11.576;2023-08-12T03:21:45;2.77;;;2.57;;
26034;SDS011;13809;48.632;11.576;2023-08-12T03:26:49;2.60;;;2.40;;
26034;SDS011;13809;48.632;11.576;2023-08-12T03:31:52;2.67;;;2.37;;
26034;SDS011;13809;48.632;11.576;2023-08-12T03:36:56;2.60;;;2.40;;
26034;SDS011;13809;48.632;11.576;2023-08-12T03:42:00;2.80;;;2.40;;
26034;SDS011;13809;48.632;11.576;2023-08-12T03:47:03;3.50;;;2.70;;
26034;SDS011;13809;48.632;11.576;2023-08-12T03:52:07;3.30;;;2.30;;
26034;SDS011;13809;48.632;11.576;2023-08-12T03:57:11;2.20;;;2.10;;
26034;SDS011;13809;48.632;11.576;2023-08-12T04:02:15;2.63;;;2.43;;
26034;SDS011;13809;48.632;11.576;2023-08-12T04:07:18;2.20;;;2.00;;
26034;SDS011;13809;48.632;11.576;2023-08-12T04:12:22;3.07;;;2.30;;
26034;SDS011;13809;48.632;11.576;2023-08-12T04:17:26;2.77;;;2.57;;
26034;SDS011;13809;48.632;11.576;2023-08-12T04:22:29;2.87;;;2.10;;
26034;SDS011;13809;48.632;11.576;2023-08-12T04:27:33;2.70;;;2.50;;
26034;SDS011;13809;48.632;11.576;2023-08-12T04:32:37;2.67;;;2.47;;
26034;SDS011;13809;48.632;11.576;2023-08-12T04:37:40;3.63;;;3.03;;
26034;SDS011;13809;48.632;11.576;2023-08-12T04:42:44;2.97;;;2.77;;
26034;SDS011;13809;48.632;11.576;2023-08-12T04:47:47;2.73;;;2.53;;
26034;SDS011;13809;48.632;11.576;2023-08-12T04:52:51;3.03;;;2.30;;
26034;SDS011;13809;48.632;11.576;2023-08-12T04:57:55;2.70;;;2.50;;
26034;SDS011;13809;48.632;11.576;2023-08-12T05:02:59;2.27;;;2.17;;
26034;SDS011;13809;48.632;11.576;2023-08-12T05:08:02;3.47;;;2.30;;
26034;SDS011;13809;48.632;11.576;2023-08-12T05:13:07;3.00;;;2.70;;
26034;SDS011;13809;48.632;11.576;2023-08-12T05:18:10;2.60;;;2.40;;
26034;SDS011;13809;48.632;11.576;2023-08-12T05:23:13;2.60;;;2.40;;
26034;SDS011;13809;48.632;11.576;2023-08-12T05:28:18;2.60;;;2.40;;
26034;SDS011;13809;48.632;11.576;2023-08-12T05:33:21;3.00;;;2.80;;
26034;SDS011;13809;48.632;11.576;2023-08-12T05:38:25;3.70;;;2.90;;
26034;SDS011;13809;48.632;11.576;2023-08-12T05:43:30;4.17;;;2.47;;
26034;SDS011;13809;48.632;11.576;2023-08-12T05:48:33;3.33;;;2.60;;
26034;SDS011;13809;48.632;11.576;2023-08-12T05:53:36;2.80;;;2.60;;
26034;SDS011;13809;48.632;11.576;2023-08-12T05:58:40;3.83;;;3.43;;
26034;SDS011;13809;48.632;11.576;2023-08-12T06:03:43;3.27;;;2.97;;
26034;SDS011;13809;48.632;11.576;2023-08-12T06:08:47;4.07;;;3.43;;
26034;SDS011;13809;48.632;11.576;2023-08-12T06:13:51;3.70;;;3.40;;
26034;SDS011;13809;48.632;11.576;2023-08-12T06:18:54;3.80;;;3.50;;
26034;SDS011;13809;48.632;11.576;2023-08-12T06:23:58;3.50;;;3.20;;
26034;SDS011;13809;48.632;11.576;2023-08-12T06:29:02;4.37;;;3.20;;
26034;SDS011;13809;48.632;11.576;2023-08-12T06:34:06;3.53;;;2.97;;
26034;SDS011;13809;48.632;11.576;2023-08-12T06:39:09;3.53;;;3.23;;
26034;SDS011;13809;48.632;11.576;2023-08-12T06:44:14;3.20;;;2.90;;
26034;SDS011;13809;48.632;11.576;2023-08-12T06:49:17;3.20;;;3.00;;
26034;SDS011;13809;48.632;11.576;2023-08-12T06:54:20;4.53;;;3.40;;
26034;SDS011;13809;48.632;11.576;2023-08-12T06:59:27;3.47;;;3.27;;
26034;SDS011;13809;48.632;11.576;2023-08-12T07:04:30;3.77;;;3.47;;
26034;SDS011;13809;48.632;11.576;2023-08-12T07:09:33;4.37;;;3.27;;
26034;SDS011;13809;48.632;11.576;2023-08-12T07:14:38;3.80;;;3.50;;
26034;SDS011;13809;48.632;11.576;2023-08-12T07:19:41;3.80;;;3.50;;
26034;SDS011;13809;48.632;11.576;2023-08-12T07:24:44;4.00;;;3.70;;
26034;SDS011;13809;48.632;11.576;2023-08-12T07:29:49;3.63;;;3.43;;
26034;SDS011;13809;48.632;11.576;2023-08-12T07:34:52;4.00;;;3.60;;
26034;SDS011;13809;48.632;11.576;2023-08-12T07:39:55;3.80;;;3.50;;
26034;SDS011;13809;48.632;11.576;2023-08-12T07:44:59;3.67;;;3.37;;
26034;SDS011;13809;48.632;11.576;2023-08-12T07:50:03;3.77;;;3.17;;
26034;SDS011;13809;48.632;11.576;2023-08-12T07:55:07;3.50;;;3.30;;
26034;SDS011;13809;48.632;11.576;2023-08-12T08:00:12;3.60;;;3.40;;
26034;SDS011;13809;48.632;11.576;2023-08-12T08:05:16;3.83;;;3.20;;
26034;SDS011;13809;48.632;11.576;2023-08-12T08:10:19;3.70;;;3.40;;
26034;SDS011;13809;48.632;11.576;2023-08-12T08:15:23;3.57;;;3.37;;
26034;SDS011;13809;48.632;11.576;2023-08-12T08:20:27;3.40;;;3.20;;
26034;SDS011;13809;48.632;11.576;2023-08-12T08:25:30;4.20;;;3.40;;
26034;SDS011;13809;48.632;11.576;2023-08-12T08:30:35;3.40;;;3.20;;
26034;SDS011;13809;48.632;11.576;2023-08-12T08:35:38;3.93;;;3.60;;
26034;SDS011;13809;48.632;11.576;2023-08-12T08:40:41;3.57;;;3.27;;
26034;SDS011;13809;48.632;11.576;2023-08-12T08:45:46;3.43;;;3.20;;
26034;SDS011;13809;48.632;11.576;2023-08-12T08:50:53;3.50;;;3.23;;
26034;SDS011;13809;48.632;11.576;2023-08-12T08:55:57;3.53;;;3.23;;
26034;SDS011;13809;48.632;11.576;2023-08-12T09:01:03;3.70;;;3.40;;
26034;SDS011;13809;48.632;11.576;2023-08-12T09:06:09;3.93;;;3.67;;
26034;SDS011;13809;48.632;11.576;2023-08-12T09:11:12;3.67;;;3.40;;
26034;SDS011;13809;48.632;11.576;2023-08-12T09:16:19;4.87;;;3.43;;
26034;SDS011;13809;48.632;11.576;2023-08-12T09:21:22;3.40;;;3.10;;
26034;SDS011;13809;48.632;11.576;2023-08-12T09:26:26;4.20;;;3.40;;
26034;SDS011;13809;48.632;11.576;2023-08-12T09:31:32;4.40;;;3.50;;
26034;SDS011;13809;48.632;11.576;2023-08-12T09:36:35;3.60;;;3.30;;
26034;SDS011;13809;48.632;11.576;2023-08-12T09:41:38;4.10;;;3.80;;
26034;SDS011;13809;48.632;11.576;2023-08-12T09:46:43;3.70;;;3.50;;
26034;SDS011;13809;48.632;11.576;2023-08-12T09:51:46;4.10;;;3.63;;
26034;SDS011;13809;48.632;11.576;2023-08-12T09:56:51;3.67;;;3.43;;
26034;SDS011;13809;48.632;11.576;2023-08-12T10:02:02;4.00;;;3.70;;
26034;SDS011;13809;48.632;11.576;2023-08-12T10:07:07;3.67;;;3.37;;
26034;SDS011;13809;48.632;11.576;2023-08-12T10:12:12;3.90;;;3.60;;
26034;SDS011;13809;48.632;11.576;2023-08-12T10:17:21;3.50;;;3.30;;
26034;SDS011;13809;48.632;11.576;2023-08-12T10:22:43;4.27;;;3.43;;
26034;SDS011;13809;48.632;11.576;2023-08-12T10:27:47;3.73;;;3.40;;
26034;SDS011;13809;48.632;11.576;2023-08-12T10:32:51;3.93;;;3.53;;
26034;SDS011;13809;48.632;11.576;2023-08-12T10:37:55;3.63;;;3.40;;
26034;SDS011;13809;48.632;11.576;2023-08-12T10:42:58;3.70;;;3.50;;
26034;SDS011;13809;48.632;11.576;2023-08-12T10:48:15;3.80;;;3.50;;
26034;SDS011;13809;48.632;11.576;2023-08-12T10:53:21;3.63;;;3.43;;
26034;SDS011;13809;48.632;11.576;2023-08-12T10:58:27;4.07;;;3.77;;
26034;SDS011;13809;48.632;11.576;2023-08-12T11:03:34;3.73;;;3.43;;
26034;SDS011;13809;48.632;11.576;2023-08-12T11:08:45;3.60;;;3.30;;
26034;SDS011;13809;48.632;11.576;2023-08-12T11:13:52;3.50;;;3.30;;
26034;SDS011;13809;48.632;11.576;2023-08-12T11:18:58;3.63;;;3.33;;
26034;SDS011;13809;48.632;11.576;2023-08-12T11:24:02;3.27;;;3.07;;
26034;SDS011;13809;48.632;11.576;2023-08-12T11:29:08;3.47;;;3.27;;
26034;SDS011;13809;48.632;11.576;2023-08-12T11:34:13;3.73;;;3.43;;
26034;SDS011;13809;48.632;11.576;2023-08-12T11:39:17;3.50;;;3.30;;
26034;SDS011;13809;48.632;11.576;2023-08-12T11:44:21;3.70;;;3.33;;
26034;SDS011;13809;48.632;11.576;2023-08-12T11:49:25;3.20;;;3.00;;
26034;SDS011;13809;48.632;11.576;2023-08-12T11:54:29;3.33;;;3.13;;
26034;SDS011;13809;48.632;11.576;2023-08-12T11:59:32;3.53;;;3.23;;
26034;SDS011;13809;48.632;11.576;2023-08-12T12:04:37;3.50;;;3.20;;
26034;SDS011;13809;48.632;11.576;2023-08-12T12:09:42;3.70;;;3.30;;
26034;SDS011;13809;48.632;11.576;2023-08-12T12:14:46;3.33;;;3.03;;
26034;SDS011;13809;48.632;11.576;2023-08-12T12:19:54;3.30;;;3.03;;
26034;SDS011;13809;48.632;11.576;2023-08-12T12:24:58;3.70;;;3.40;;
26034;SDS011;13809;48.632;11.576;2023-08-12T12:30:02;3.70;;;3.40;;
26034;SDS011;13809;48.632;11.576;2023-08-12T12:35:08;3.20;;;3.00;;
26034;SDS011;13809;48.632;11.576;2023-08-12T12:40:11;3.47;;;3.27;;
26034;SDS011;13809;48.632;11.576;2023-08-12T12:45:14;3.17;;;2.97;;
26034;SDS011;13809;48.632;11.576;2023-08-12T12:50:19;3.30;;;3.10;;
26034;SDS011;13809;48.632;11.576;2023-08-12T12:55:23;3.53;;;3.33;;
26034;SDS011;13809;48.632;11.576;2023-08-12T13:00:26;4.97;;;3.23;;
26034;SDS011;13809;48.632;11.576;2023-08-12T13:05:30;3.27;;;3.07;;
26034;SDS011;13809;48.632;11.576;2023-08-12T13:10:34;3.10;;;2.90;;
26034;SDS011;13809;48.632;11.576;2023-08-12T13:15:37;3.20;;;2.90;;
26034;SDS011;13809;48.632;11.576;2023-08-12T13:20:41;3.23;;;3.03;;
26034;SDS011;13809;48.632;11.576;2023-08-12T13:25:45;3.20;;;3.00;;
26034;SDS011;13809;48.632;11.576;2023-08-12T13:30:48;3.03;;;2.83;;
26034;SDS011;13809;48.632;11.576;2023-08-12T13:35:53;3.67;;;3.43;;
26034;SDS011;13809;48.632;11.576;2023-08-12T13:40:56;3.43;;;3.20;;
26034;SDS011;13809;48.632;11.576;2023-08-12T13:46:00;3.40;;;3.20;;
26034;SDS011;13809;48.632;11.576;2023-08-12T13:51:05;3.30;;;3.10;;
26034;SDS011;13809;48.632;11.576;2023-08-12T13:56:08;3.20;;;3.00;;
26034;SDS011;13809;48.632;11.576;2023-08-12T14:01:11;3.00;;;2.80;;
26034;SDS011;13809;48.632;11.576;2023-08-12T14:06:16;3.07;;;2.73;;
26034;SDS011;13809;48.632;11.576;2023-08-12T14:11:19;2.83;;;2.73;;
26034;SDS011;13809;48.632;11.576;2023-08-12T14:16:22;2.70;;;2.60;;
26034;SDS011;13809;48.632;11.576;2023-08-12T14:21:27;3.00;;;2.80;;
26034;SDS011;13809;48.632;11.576;2023-08-12T14:26:30;3.00;;;2.80;;
26034;SDS011;13809;48.632;11.576;2023-08-12T14:31:34;3.73;;;3.00;;
26034;SDS011;13809;48.632;11.576;2023-08-12T14:36:38;2.73;;;2.53;;
26034;SDS011;13809;48.632;11.576;2023-08-12T14:41:41;3.13;;;2.93;;
26034;SDS011;13809;48.632;11.576;2023-08-12T14:46:45;2.87;;;2.67;;
26034;SDS011;13809;48.632;11.576;2023-08-12T14:51:49;3.10;;;2.90;;
26034;SDS011;13809;48.632;11.576;2023-08-12T14:56:52;2.80;;;2.60;;
26034;SDS011;13809;48.632;11.576;2023-08-12T15:01:56;3.50;;;3.20;;
26034;SDS011;13809;48.632;11.576;2023-08-12T15:07:01;3.07;;;2.87;;
26034;SDS011;13809;48.632;11.576;2023-08-12T15:12:04;3.47;;;3.03;;
26034;SDS011;13809;48.632;11.576;2023-08-12T15:17:08;3.00;;;2.67;;
26034;SDS011;13809;48.632;11.576;2023-08-12T15:22:13;3.20;;;2.70;;
26034;SDS011;13809;48.632;11.576;2023-08-12T15:27:17;3.00;;;2.80;;
26034;SDS011;13809;48.632;11.576;2023-08-12T15:32:20;3.20;;;2.80;;
26034;SDS011;13809;48.632;11.576;2023-08-12T15:37:24;2.87;;;2.67;;
26034;SDS011;13809;48.632;11.576;2023-08-12T15:42:28;3.00;;;2.70;;
26034;SDS011;13809;48.632;11.576;2023-08-12T15:47:31;3.33;;;2.40;;
26034;SDS011;13809;48.632;11.576;2023-08-12T15:52:36;2.83;;;2.23;;
26034;SDS011;13809;48.632;11.576;2023-08-12T15:57:39;2.57;;;2.37;;
26034;SDS011;13809;48.632;11.576;2023-08-12T16:02:42;2.53;;;2.33;;
26034;SDS011;13809;48.632;11.576;2023-08-12T16:07:47;3.20;;;2.60;;
26034;SDS011;13809;48.632;11.576;2023-08-12T16:12:50;2.40;;;2.30;;
26034;SDS011;13809;48.632;11.576;2023-08-12T16:17:53;2.57;;;2.43;;
26034;SDS011;13809;48.632;11.576;2023-08-12T16:22:58;2.70;;;2.50;;
26034;SDS011;13809;48.632;11.576;2023-08-12T16:28:01;2.90;;;2.40;;
26034;SDS011;13809;48.632;11.576;2023-08-12T16:33:04;2.50;;;2.30;;
26034;SDS011;13809;48.632;11.576;2023-08-12T16:38:09;2.30;;;2.10;;
26034;SDS011;13809;48.632;11.576;2023-08-12T16:43:12;3.43;;;1.87;;
26034;SDS011;13809;48.632;11.576;2023-08-12T16:48:15;2.80;;;2.23;;
26034;SDS011;13809;48.632;11.576;2023-08-12T16:53:19;2.83;;;1.87;;
26034;SDS011;13809;48.632;11.576;2023-08-12T16:58:23;2.20;;;2.00;;
26034;SDS011;13809;48.632;11.576;2023-08-12T17:03:26;2.43;;;2.23;;
26034;SDS011;13809;48.632;11.576;2023-08-12T17:08:31;2.13;;;2.03;;
26034;SDS011;13809;48.632;11.576;2023-08-12T17:13:34;2.30;;;2.00;;
26034;SDS011;13809;48.632;11.576;2023-08-12T17:18:38;2.63;;;1.83;;
26034;SDS011;13809;48.632;11.576;2023-08-12T17:23:42;1.80;;;1.70;;
26034;SDS011;13809;48.632;11.576;2023-08-12T17:28:46;1.90;;;1.80;;
26034;SDS011;13809;48.632;11.576;2023-08-12T17:33:49;3.40;;;1.70;;
26034;SDS011;13809;48.632;11.576;2023-08-12T17:38:54;1.90;;;1.80;;
26034;SDS011;13809;48.632;11.576;2023-08-12T17:43:57;1.80;;;1.70;;
26034;SDS011;13809;48.632;11.576;2023-08-12T17:49:00;2.47;;;1.87;;
26034;SDS011;13809;48.632;11.576;2023-08-12T17:54:05;2.47;;;2.27;;
26034;SDS011;13809;48.632;11.576;2023-08-12T17:59:08;4.07;;;2.10;;
26034;SDS011;13809;48.632;11.576;2023-08-12T18:04:11;2.63;;;2.43;;
26034;SDS011;13809;48.632;11.576;2023-08-12T18:09:16;2.10;;;2.00;;
26034;SDS011;13809;48.632;11.576;2023-08-12T18:14:20;2.00;;;1.90;;
26034;SDS011;13809;48.632;11.576;2023-08-12T18:19:23;1.90;;;1.80;;
26034;SDS011;13809;48.632;11.576;2023-08-12T18:24:28;1.93;;;1.83;;
26034;SDS011;13809;48.632;11.576;2023-08-12T18:29:31;2.40;;;1.90;;
26034;SDS011;13809;48.632;11.576;2023-08-12T18:34:34;2.10;;;1.90;;
26034;SDS011;13809;48.632;11.576;2023-08-12T18:39:39;3.80;;;1.80;;
26034;SDS011;13809;48.632;11.576;2023-08-12T18:44:42;1.80;;;1.70;;
26034;SDS011;13809;48.632;11.576;2023-08-12T18:49:46;3.00;;;2.00;;
26034;SDS011;13809;48.632;11.576;2023-08-12T18:54:50;2.30;;;2.03;;
26034;SDS011;13809;48.632;11.576;2023-08-12T18:59:53;2.20;;;1.80;;
26034;SDS011;13809;48.632;11.576;2023-08-12T19:04:57;2.37;;;2.20;;
26034;SDS011;13809;48.632;11.576;2023-08-12T19:10:01;10.30;;;2.80;;
26034;SDS011;13809;48.632;11.576;2023-08-12T19:15:05;7.67;;;2.90;;
26034;SDS011;13809;48.632;11.576;2023-08-12T19:20:09;6.50;;;2.90;;
26034;SDS011;13809;48.632;11.576;2023-08-12T19:25:14;15.87;;;2.77;;
26034;SDS011;13809;48.632;11.576;2023-08-12T19:30:18;4.87;;;2.23;;
26034;SDS011;13809;48.632;11.576;2023-08-12T19:35:21;2.50;;;2.10;;
26034;SDS011;13809;48.632;11.576;2023-08-12T19:40:26;4.13;;;2.20;;
26034;SDS011;13809;48.632;11.576;2023-08-12T19:45:30;4.27;;;2.60;;
26034;SDS011;13809;48.632;11.576;2023-08-12T19:50:34;2.83;;;2.30;;
26034;SDS011;13809;48.632;11.576;2023-08-12T19:55:39;2.83;;;2.57;;
26034;SDS011;13809;48.632;11.576;2023-08-12T20:00:42;5.60;;;2.50;;
26034;SDS011;13809;48.632;11.576;2023-08-12T20:05:45;2.30;;;2.10;;
26034;SDS011;13809;48.632;11.576;2023-08-12T20:10:52;2.30;;;2.10;;
26034;SDS011;13809;48.632;11.576;2023-08-12T20:15:56;2.90;;;2.57;;
26034;SDS011;13809;48.632;11.576;2023-08-12T20:21:00;5.03;;;2.70;;
26034;SDS011;13809;48.632;11.576;2023-08-12T20:26:05;6.70;;;3.03;;
26034;SDS011;13809;48.632;11.576;2023-08-12T20:31:10;5.43;;;2.60;;
26034;SDS011;13809;48.632;11.576;2023-08-12T20:36:14;6.43;;;3.03;;
26034;SDS011;13809;48.632;11.576;2023-08-12T20:41:22;5.10;;;3.03;;
26034;SDS011;13809;48.632;11.576;2023-08-12T20:46:25;8.00;;;2.90;;
26034;SDS011;13809;48.632;11.576;2023-08-12T20:51:28;4.80;;;3.20;;
26034;SDS011;13809;48.632;11.576;2023-08-12T20:56:33;3.83;;;3.17;;
26034;SDS011;13809;48.632;11.576;2023-08-12T21:01:36;7.40;;;2.80;;
26034;SDS011;13809;48.632;11.576;2023-08-12T21:06:39;3.23;;;2.80;;
26034;SDS011;13809;48.632;11.576;2023-08-12T21:11:44;4.10;;;2.93;;
26034;SDS011;13809;48.632;11.576;2023-08-12T21:16:47;6.43;;;3.50;;
26034;SDS011;13809;48.632;11.576;2023-08-12T21:21:50;7.63;;;3.20;;
26034;SDS011;13809;48.632;11.576;2023-08-12T21:26:55;3.33;;;3.03;;
26034;SDS011;13809;48.632;11.576;2023-08-12T21:31:58;2.73;;;2.53;;
26034;SDS011;13809;48.632;11.576;2023-08-12T21:37:01;2.73;;;2.53;;
26034;SDS011;13809;48.632;11.576;2023-08-12T21:42:07;2.60;;;2.43;;
26034;SDS011;13809;48.632;11.576;2023-08-12T21:47:10;2.80;;;2.60;;
26034;SDS011;13809;48.632;11.576;2023-08-12T21:52:13;2.53;;;2.33;;
26034;SDS011;13809;48.632;11.576;2023-08-12T21:57:18;3.27;;;2.43;;
26034;SDS011;13809;48.632;11.576;2023-08-12T22:02:22;2.67;;;2.20;;
26034;SDS011;13809;48.632;11.576;2023-08-12T22:07:26;3.70;;;2.57;;
26034;SDS011;13809;48.632;11.576;2023-08-12T22:12:30;4.00;;;2.57;;
26034;SDS011;13809;48.632;11.576;2023-08-12T22:17:34;2.83;;;2.33;;
26034;SDS011;13809;48.632;11.576;2023-08-12T22:22:37;3.23;;;2.43;;
26034;SDS011;13809;48.632;11.576;2023-08-12T22:27:42;2.60;;;2.23;;
26034;SDS011;13809;48.632;11.576;2023-08-12T22:32:45;2.80;;;2.30;;
26034;SDS011;13809;48.632;11.576;2023-08-12T22:37:48;3.13;;;2.50;;
26034;SDS011;13809;48.632;11.576;2023-08-12T22:42:53;4.13;;;2.60;;
26034;SDS011;13809;48.632;11.576;2023-08-12T22:47:56;2.50;;;2.30;;
26034;SDS011;13809;48.632;11.576;2023-08-12T22:53:00;3.73;;;2.30;;
26034;SDS011;13809;48.632;11.576;2023-08-12T22:58:04;2.80;;;2.57;;
26034;SDS011;13809;48.632;11.576;2023-08-12T23:03:07;3.13;;;2.83;;
26034;SDS011;13809;48.632;11.576;2023-08-12T23:08:11;3.83;;;2.70;;
26034;SDS011;13809;48.632;11.576;2023-08-12T23:13:15;2.97;;;2.70;;
26034;SDS011;13809;48.632;11.576;2023-08-12T23:18:19;3.10;;;2.57;;
26034;SDS011;13809;48.632;11.576;2023-08-12T23:23:22;2.87;;;2.67;;
26034;SDS011;13809;48.632;11.576;2023-08-12T23:28:26;5.03;;;3.00;;
26034;SDS011;13809;48.632;11.576;2023-08-12T23:33:30;2.90;;;2.70;;
26034;SDS011;13809;48.632;11.576;2023-08-12T23:38:34;5.00;;;3.00;;
26034;SDS011;13809;48.632;11.576;2023-08-12T23:43:38;3.53;;;2.90;;
26034;SDS011;13809;48.632;11.576;2023-08-12T23:48:42;3.53;;;2.70;;
26034;SDS011;13809;48.632;11.576;2023-08-12T23:53:45;2.70;;;2.50;;
26034;SDS011;13809;48.632;11.576;2023-08-12T23:58:50;2.80;;;2.60;;
